createdAt,value
2023-05-16T00:01:59.894Z,8.32
2023-05-16T00:04:27.686Z,8.07
2023-05-16T00:06:55.865Z,7.72
2023-05-16T00:09:23.614Z,7.95
2023-05-16T00:11:51.689Z,8.27
2023-05-16T00:14:19.894Z,8.40
2023-05-16T00:16:47.978Z,8.18
2023-05-16T00:19:15.929Z,8.70
2023-05-16T00:21:44.918Z,9.15
2023-05-16T00:24:12.568Z,8.43
2023-05-16T00:26:40.492Z,9.52
2023-05-16T00:29:08.126Z,9.15
2023-05-16T00:31:36.091Z,9.25
2023-05-16T00:34:03.745Z,9.32
2023-05-16T00:36:31.732Z,9.38
2023-05-16T00:38:59.401Z,9.50
2023-05-16T00:41:28.654Z,9.45
2023-05-16T00:43:56.363Z,9.88
2023-05-16T00:46:24.332Z,8.23
2023-05-16T00:48:53.279Z,9.70
2023-05-16T00:51:21.431Z,9.85
2023-05-16T00:53:49.299Z,10.05
2023-05-16T00:56:18.801Z,9.73
2023-05-16T00:58:46.762Z,9.80
2023-05-16T01:01:14.784Z,9.98
2023-05-16T01:03:47.097Z,9.73
2023-05-16T01:06:15.089Z,9.63
2023-05-16T01:08:42.863Z,9.65
2023-05-16T01:11:29.656Z,9.43
2023-05-16T01:14:09.706Z,9.85
2023-05-16T01:17:13.774Z,10.25
2023-05-16T01:20:15.706Z,9.80
2023-05-16T01:22:47.747Z,10.40
2023-05-16T01:25:34.005Z,10.23
2023-05-16T01:28:03.350Z,10.02
2023-05-16T01:30:40.065Z,9.38
2023-05-16T01:33:10.320Z,10.25
2023-05-16T01:35:46.880Z,10.40
2023-05-16T01:38:26.004Z,9.88
2023-05-16T01:41:16.503Z,10.82
2023-05-16T01:43:48.356Z,10.45
2023-05-16T01:46:21.677Z,10.15
2023-05-16T01:48:52.972Z,9.68
2023-05-16T01:51:25.042Z,10.13
2023-05-16T01:53:58.761Z,10.55
2023-05-16T01:56:28.090Z,9.88
2023-05-16T01:58:58.069Z,9.82
2023-05-16T02:01:26.004Z,10.30
2023-05-16T02:03:54.345Z,10.60
2023-05-16T02:06:23.770Z,10.95
2023-05-16T02:08:52.162Z,10.20
2023-05-16T02:11:19.867Z,10.82
2023-05-16T02:13:47.824Z,11.35
2023-05-16T02:16:15.687Z,11.25
2023-05-16T02:18:45.224Z,10.88
2023-05-16T02:21:13.038Z,9.85
2023-05-16T02:23:41.474Z,11.38
2023-05-16T02:26:09.190Z,11.02
2023-05-16T02:28:37.179Z,10.95
2023-05-16T02:31:05.013Z,11.88
2023-05-16T02:33:34.625Z,11.50
2023-05-16T02:36:02.779Z,11.13
2023-05-16T02:38:30.676Z,11.52
2023-05-16T02:40:58.301Z,12.00
2023-05-16T02:43:26.289Z,12.73
2023-05-16T02:45:54.054Z,12.75
2023-05-16T02:48:22.110Z,12.55
2023-05-16T02:50:49.842Z,13.00
2023-05-16T02:53:17.817Z,13.23
2023-05-16T02:55:45.783Z,14.10
2023-05-16T02:58:14.355Z,14.20
2023-05-16T03:00:42.554Z,15.02
2023-05-16T03:03:10.625Z,13.00
2023-05-16T03:05:38.360Z,13.70
2023-05-16T03:08:07.605Z,13.43
2023-05-16T03:10:35.260Z,13.75
2023-05-16T03:13:03.170Z,13.23
2023-05-16T03:15:30.883Z,13.40
2023-05-16T03:17:58.832Z,13.32
2023-05-16T03:20:26.520Z,14.13
2023-05-16T03:22:54.415Z,12.98
2023-05-16T03:25:22.060Z,12.75
2023-05-16T03:27:50.067Z,14.07
2023-05-16T03:30:20.425Z,13.10
2023-05-16T03:32:48.376Z,13.85
2023-05-16T03:35:16.219Z,12.95
2023-05-16T03:37:44.418Z,13.30
2023-05-16T03:40:12.838Z,13.35
2023-05-16T03:42:40.738Z,13.27
2023-05-16T03:45:09.198Z,13.32
2023-05-16T03:47:37.300Z,13.48
2023-05-16T03:50:06.160Z,12.65
2023-05-16T03:52:34.846Z,13.40
2023-05-16T03:55:04.081Z,12.90
2023-05-16T03:57:33.312Z,13.27
2023-05-16T04:00:01.154Z,12.70
2023-05-16T04:02:42.998Z,12.32
2023-05-16T04:05:12.310Z,12.75
2023-05-16T04:07:40.993Z,12.18
2023-05-16T04:10:09.364Z,12.27
2023-05-16T04:12:37.670Z,11.68
2023-05-16T04:15:06.228Z,11.10
2023-05-16T04:17:34.852Z,10.80
2023-05-16T04:20:04.328Z,10.57
2023-05-16T04:22:32.206Z,10.05
2023-05-16T04:24:59.908Z,9.98
2023-05-16T04:27:27.929Z,9.88
2023-05-16T04:29:56.263Z,9.40
2023-05-16T04:32:24.267Z,9.07
2023-05-16T04:34:54.296Z,8.27
2023-05-16T04:37:22.456Z,7.95
2023-05-16T04:39:50.075Z,7.32
2023-05-16T04:42:18.004Z,7.05
2023-05-16T04:44:47.829Z,6.93
2023-05-16T04:47:15.995Z,7.05
2023-05-16T04:49:43.740Z,6.72
2023-05-16T04:52:11.633Z,7.00
2023-05-16T04:54:39.888Z,7.03
2023-05-16T04:57:07.779Z,7.32
2023-05-16T04:59:35.490Z,7.00
2023-05-16T05:02:04.414Z,7.28
2023-05-16T05:04:32.688Z,7.25
2023-05-16T05:07:00.772Z,7.13
2023-05-16T05:09:28.402Z,6.78
2023-05-16T05:11:56.441Z,6.55
2023-05-16T05:14:24.122Z,6.35
2023-05-16T05:16:52.047Z,6.28
2023-05-16T05:19:19.846Z,6.40
2023-05-16T05:21:47.759Z,6.13
2023-05-16T05:24:15.514Z,6.63
2023-05-16T05:26:43.482Z,6.40
2023-05-16T05:29:11.145Z,6.60
2023-05-16T05:31:39.053Z,7.28
2023-05-16T05:34:06.741Z,7.13
2023-05-16T05:36:34.706Z,6.80
2023-05-16T05:39:02.307Z,7.43
2023-05-16T05:41:30.413Z,7.43
2023-05-16T05:43:58.030Z,7.15
2023-05-16T05:46:26.306Z,7.32
2023-05-16T05:48:54.099Z,7.55
2023-05-16T05:51:22.169Z,7.53
2023-05-16T05:53:50.397Z,7.45
2023-05-16T05:56:18.547Z,7.28
2023-05-16T05:58:46.272Z,7.43
2023-05-16T06:01:14.634Z,8.05
2023-05-16T06:03:42.869Z,7.63
2023-05-16T06:06:10.805Z,7.90
2023-05-16T06:08:38.520Z,7.85
2023-05-16T06:11:07.512Z,8.40
2023-05-16T06:13:35.140Z,7.88
2023-05-16T06:16:03.163Z,7.90
2023-05-16T06:18:31.044Z,8.73
2023-05-16T06:20:58.948Z,8.07
2023-05-16T06:23:27.316Z,8.10
2023-05-16T06:25:55.258Z,8.32
2023-05-16T06:28:23.995Z,8.30
2023-05-16T06:30:52.121Z,8.23
2023-05-16T06:33:20.313Z,8.80
2023-05-16T06:35:48.784Z,8.98
2023-05-16T06:38:16.642Z,8.68
2023-05-16T06:40:44.670Z,8.65
2023-05-16T06:43:12.436Z,9.50
2023-05-16T06:45:41.009Z,8.90
2023-05-16T06:48:09.027Z,9.35
2023-05-16T06:50:37.176Z,8.52
2023-05-16T06:53:06.798Z,8.80
2023-05-16T06:55:35.449Z,8.18
2023-05-16T06:58:03.212Z,8.45
2023-05-16T07:00:31.218Z,8.50
2023-05-16T07:02:59.094Z,8.20
2023-05-16T07:05:27.241Z,8.82
2023-05-16T07:07:55.215Z,7.95
2023-05-16T07:10:23.341Z,8.48
2023-05-16T07:12:51.139Z,8.10
2023-05-16T07:15:19.360Z,9.23
2023-05-16T07:17:49.804Z,8.68
2023-05-16T07:20:17.879Z,8.88
2023-05-16T07:22:45.684Z,9.25
2023-05-16T07:25:15.080Z,8.85
2023-05-16T07:27:45.179Z,9.40
2023-05-16T07:30:14.328Z,9.80
2023-05-16T07:32:43.558Z,9.93
2023-05-16T07:35:13.252Z,9.65
2023-05-16T07:37:42.600Z,9.70
2023-05-16T07:40:11.801Z,9.98
2023-05-16T07:42:39.678Z,9.73
2023-05-16T07:45:08.316Z,9.40
2023-05-16T07:47:36.389Z,8.13
2023-05-16T07:50:04.413Z,7.28
2023-05-16T07:52:32.382Z,6.88
2023-05-16T07:55:00.479Z,6.88
2023-05-16T07:57:29.191Z,6.57
2023-05-16T07:59:57.047Z,5.95
2023-05-16T08:02:26.604Z,5.20
2023-05-16T08:04:55.157Z,5.50
2023-05-16T08:07:23.417Z,4.75
2023-05-16T08:09:51.212Z,4.53
2023-05-16T08:12:19.621Z,4.95
2023-05-16T08:14:47.341Z,4.43
2023-05-16T08:17:15.347Z,4.18
2023-05-16T08:19:43.218Z,3.65
2023-05-16T08:22:11.242Z,4.20
2023-05-16T08:24:39.228Z,4.05
2023-05-16T08:27:07.392Z,4.05
2023-05-16T08:29:35.179Z,4.00
2023-05-16T08:32:03.200Z,4.10
2023-05-16T08:34:34.089Z,3.90
2023-05-16T08:37:02.138Z,4.05
2023-05-16T08:39:30.900Z,3.67
2023-05-16T08:41:59.044Z,4.00
2023-05-16T08:44:27.730Z,4.30
2023-05-16T08:46:56.843Z,4.22
2023-05-16T08:49:29.342Z,4.50
2023-05-16T08:52:01.252Z,3.75
2023-05-16T08:54:29.943Z,4.50
2023-05-16T08:56:58.784Z,3.60
2023-05-16T08:59:26.711Z,3.45
2023-05-16T09:01:55.523Z,3.63
2023-05-16T09:04:26.073Z,3.63
2023-05-16T09:06:54.271Z,3.08
2023-05-16T09:09:21.975Z,3.10
2023-05-16T09:11:50.029Z,3.30
2023-05-16T09:14:18.198Z,3.30
2023-05-16T09:17:02.919Z,3.15
2023-05-16T09:22:06.944Z,3.47
2023-05-16T09:24:38.017Z,3.67
2023-05-16T09:27:11.134Z,3.53
2023-05-16T09:29:42.355Z,3.50
2023-05-16T09:32:15.540Z,3.72
2023-05-16T09:34:51.682Z,3.22
2023-05-16T09:37:20.538Z,3.67
2023-05-16T09:39:53.139Z,3.20
2023-05-16T09:42:22.735Z,3.60
2023-05-16T09:44:52.467Z,3.80
2023-05-16T09:47:22.167Z,3.70
2023-05-16T09:49:54.371Z,3.75
2023-05-16T09:52:22.380Z,3.63
2023-05-16T09:54:50.228Z,3.30
2023-05-16T09:57:22.082Z,3.33
2023-05-16T09:59:50.813Z,2.88
2023-05-16T10:02:19.292Z,2.90
2023-05-16T10:04:47.337Z,3.15
2023-05-16T10:07:16.654Z,3.05
2023-05-16T10:09:45.142Z,3.65
2023-05-16T10:12:15.468Z,2.92
2023-05-16T10:14:48.344Z,3.28
2023-05-16T10:17:17.921Z,3.13
2023-05-16T10:19:47.429Z,3.20
2023-05-16T10:22:16.749Z,3.08
2023-05-16T10:25:12.825Z,2.72
2023-05-16T10:27:42.249Z,3.00
2023-05-16T10:30:11.745Z,3.30
2023-05-16T10:32:42.696Z,3.08
2023-05-16T10:35:11.575Z,2.58
2023-05-16T10:37:40.860Z,2.85
2023-05-16T10:40:09.778Z,2.83
2023-05-16T10:42:37.758Z,2.63
2023-05-16T10:45:21.191Z,2.60
2023-05-16T10:47:56.211Z,2.50
2023-05-16T10:50:39.062Z,2.55
2023-05-16T10:53:13.001Z,2.25
2023-05-16T10:55:44.398Z,2.60
2023-05-16T10:58:12.446Z,2.33
2023-05-16T11:00:41.094Z,2.47
2023-05-16T11:03:28.546Z,2.40
2023-05-16T11:06:01.746Z,2.50
2023-05-16T11:08:29.754Z,2.13
2023-05-16T11:11:36.142Z,2.30
2023-05-16T11:14:04.295Z,2.40
2023-05-16T11:16:33.658Z,2.67
2023-05-16T11:19:08.616Z,2.60
2023-05-16T11:22:23.965Z,2.47
2023-05-16T11:24:56.093Z,2.20
2023-05-16T11:27:34.145Z,2.35
2023-05-16T11:30:10.530Z,2.30
2023-05-16T11:32:42.946Z,2.60
2023-05-16T11:35:14.959Z,2.08
2023-05-16T11:37:44.136Z,2.00
2023-05-16T11:40:14.681Z,2.42
2023-05-16T11:42:46.553Z,2.10
2023-05-16T11:45:19.766Z,2.05
2023-05-16T11:47:48.765Z,2.20
2023-05-16T11:50:22.304Z,2.22
2023-05-16T11:52:57.555Z,2.50
2023-05-16T11:55:41.212Z,1.95
2023-05-16T11:58:10.477Z,2.28
2023-05-16T12:00:51.545Z,2.38
2023-05-16T12:03:24.370Z,2.47
2023-05-16T12:05:57.886Z,2.50
2023-05-16T12:08:25.828Z,2.40
2023-05-16T12:10:54.414Z,2.10
2023-05-16T12:13:24.582Z,2.20
2023-05-16T12:15:53.550Z,2.40
2023-05-16T12:18:22.036Z,2.30
2023-05-16T12:20:51.186Z,2.40
2023-05-16T12:23:19.153Z,2.88
2023-05-16T12:25:49.543Z,2.42
2023-05-16T12:28:17.789Z,2.05
2023-05-16T12:30:48.173Z,2.00
2023-05-16T12:33:17.319Z,2.55
2023-05-16T12:35:47.803Z,2.35
2023-05-16T12:38:17.508Z,2.08
2023-05-16T12:40:46.427Z,2.33
2023-05-16T12:43:15.715Z,2.70
2023-05-16T12:45:49.804Z,2.50
2023-05-16T12:48:17.615Z,2.28
2023-05-16T12:50:46.650Z,2.63
2023-05-16T12:53:16.586Z,2.90
2023-05-16T12:55:45.564Z,2.85
2023-05-16T12:58:13.604Z,2.80
2023-05-16T13:00:41.651Z,2.50
2023-05-16T13:03:09.394Z,2.88
2023-05-16T13:05:37.442Z,2.50
2023-05-16T13:08:05.413Z,2.75
2023-05-16T13:10:33.556Z,2.63
2023-05-16T13:13:01.530Z,2.65
2023-05-16T13:15:29.737Z,2.10
2023-05-16T13:17:57.906Z,2.60
2023-05-16T13:20:26.105Z,2.50
2023-05-16T13:22:53.848Z,2.33
2023-05-16T13:25:21.859Z,2.60
2023-05-16T13:27:49.641Z,3.55
2023-05-16T13:30:17.916Z,3.35
2023-05-16T13:32:45.823Z,3.10
2023-05-16T13:35:13.792Z,5.95
2023-05-16T13:37:41.652Z,5.30
2023-05-16T13:40:10.717Z,3.38
2023-05-16T13:42:38.810Z,2.97
2023-05-16T13:45:08.064Z,3.60
2023-05-16T13:47:36.806Z,2.72
2023-05-16T13:50:09.351Z,2.97
2023-05-16T13:52:38.655Z,2.78
2023-05-16T13:55:08.307Z,2.65
2023-05-16T13:57:36.679Z,2.70
2023-05-16T14:00:44.452Z,3.28
2023-05-16T14:03:00.156Z,3.17
2023-05-16T14:05:28.878Z,3.00
2023-05-16T14:07:56.705Z,2.90
2023-05-16T14:10:24.809Z,2.85
2023-05-16T14:12:52.653Z,2.90
2023-05-16T14:15:21.186Z,3.00
2023-05-16T14:17:48.973Z,3.00
2023-05-16T14:20:17.356Z,2.75
2023-05-16T14:22:45.016Z,2.97
2023-05-16T14:25:13.035Z,2.92
2023-05-16T14:27:41.487Z,3.33
2023-05-16T14:30:09.972Z,3.50
2023-05-16T14:32:37.782Z,2.90
2023-05-16T14:35:06.339Z,3.25
2023-05-16T14:37:34.097Z,3.00
2023-05-16T14:40:02.489Z,3.28
2023-05-16T14:42:30.276Z,3.50
2023-05-16T14:44:58.231Z,3.00
2023-05-16T14:47:26.577Z,2.92
2023-05-16T14:49:54.900Z,3.08
2023-05-16T14:52:23.226Z,3.35
2023-05-16T14:54:51.347Z,3.30
2023-05-16T14:57:19.464Z,3.22
2023-05-16T14:59:48.555Z,2.90
2023-05-16T15:02:16.503Z,3.70
2023-05-16T15:04:44.776Z,2.90
2023-05-16T15:07:12.455Z,3.30
2023-05-16T15:09:40.447Z,2.90
2023-05-16T15:12:08.834Z,2.53
2023-05-16T15:14:37.110Z,2.95
2023-05-16T15:17:06.672Z,2.70
2023-05-16T15:19:36.860Z,3.10
2023-05-16T15:22:07.892Z,3.00
2023-05-16T15:24:36.266Z,3.20
2023-05-16T15:27:05.177Z,3.10
2023-05-16T15:29:33.208Z,3.20
2023-05-16T15:32:06.268Z,3.08
2023-05-16T15:34:35.939Z,3.15
2023-05-16T15:37:03.973Z,2.95
2023-05-16T15:39:32.077Z,3.30
2023-05-16T15:42:09.729Z,3.40
2023-05-16T15:44:39.642Z,3.00
2023-05-16T15:47:07.974Z,3.05
2023-05-16T15:49:36.243Z,3.05
2023-05-16T15:52:04.659Z,2.80
2023-05-16T15:54:32.655Z,2.90
2023-05-16T15:57:01.047Z,3.10
2023-05-16T15:59:29.064Z,2.80
2023-05-16T16:01:56.803Z,2.80
2023-05-16T16:04:24.812Z,3.30
2023-05-16T16:06:52.490Z,2.90
2023-05-16T16:09:20.554Z,3.10
2023-05-16T16:11:49.762Z,3.00
2023-05-16T16:14:18.500Z,2.83
2023-05-16T16:16:46.415Z,3.58
2023-05-16T16:19:14.920Z,2.90
2023-05-16T16:21:42.958Z,2.80
2023-05-16T16:24:10.933Z,2.92
2023-05-16T16:26:38.664Z,3.08
2023-05-16T16:29:06.672Z,2.83
2023-05-16T16:31:34.550Z,2.90
2023-05-16T16:34:02.733Z,3.20
2023-05-16T16:36:31.610Z,3.15
2023-05-16T16:39:00.160Z,3.03
2023-05-16T16:41:27.876Z,3.08
2023-05-16T16:43:55.913Z,2.72
2023-05-16T16:46:23.726Z,3.20
2023-05-16T16:48:52.436Z,2.83
2023-05-16T16:51:20.459Z,3.70
2023-05-16T16:53:48.520Z,3.35
2023-05-16T16:56:16.232Z,3.13
2023-05-16T16:58:44.369Z,3.00
2023-05-16T17:01:12.946Z,2.97
2023-05-16T17:03:41.645Z,3.40
2023-05-16T17:06:09.416Z,3.25
2023-05-16T17:08:37.442Z,3.50
2023-05-16T17:11:05.550Z,3.40
2023-05-16T17:13:34.140Z,4.05
2023-05-16T17:16:02.276Z,3.60
2023-05-16T17:18:33.001Z,5.63
2023-05-16T17:21:02.201Z,4.28
2023-05-16T17:23:30.305Z,4.10
2023-05-16T17:25:58.078Z,3.92
2023-05-16T17:28:26.581Z,3.70
2023-05-16T17:30:54.241Z,4.00
2023-05-16T17:33:22.186Z,3.67
2023-05-16T17:35:50.066Z,4.10
2023-05-16T17:38:18.132Z,4.10
2023-05-16T17:40:45.801Z,5.53
2023-05-16T17:43:14.146Z,6.57
2023-05-16T17:45:42.059Z,7.13
2023-05-16T17:48:10.174Z,7.30
2023-05-16T17:50:38.088Z,16.70
2023-05-16T17:53:08.246Z,18.40
2023-05-16T17:55:38.309Z,9.35
2023-05-16T17:58:06.927Z,8.60
2023-05-16T18:00:34.713Z,11.48
2023-05-16T18:03:03.115Z,11.40
2023-05-16T18:05:30.979Z,12.43
2023-05-16T18:07:59.268Z,11.88
2023-05-16T18:10:31.597Z,11.35
2023-05-16T18:13:07.997Z,11.18
2023-05-16T18:15:38.018Z,11.77
2023-05-16T18:18:06.110Z,12.02
2023-05-16T18:20:34.526Z,12.80
2023-05-16T18:23:02.636Z,11.90
2023-05-16T18:25:31.109Z,12.00
2023-05-16T18:27:59.135Z,12.20
2023-05-16T18:30:27.289Z,12.35
2023-05-16T18:32:55.542Z,12.30
2023-05-16T18:35:23.825Z,12.38
2023-05-16T18:37:54.482Z,11.60
2023-05-16T18:40:22.628Z,12.02
2023-05-16T18:42:51.152Z,12.30
2023-05-16T18:45:19.467Z,11.57
2023-05-16T18:47:47.585Z,12.20
2023-05-16T18:50:15.702Z,11.60
2023-05-16T18:52:43.778Z,10.50
2023-05-16T18:55:11.514Z,11.10
2023-05-16T18:57:39.701Z,9.85
2023-05-16T19:00:11.913Z,9.20
2023-05-16T19:02:42.426Z,9.98
2023-05-16T19:05:11.511Z,8.80
2023-05-16T19:07:39.750Z,8.85
2023-05-16T19:10:08.452Z,8.40
2023-05-16T19:12:36.603Z,8.68
2023-05-16T19:15:04.667Z,11.88
2023-05-16T19:17:32.765Z,13.25
2023-05-16T19:20:01.417Z,14.48
2023-05-16T19:22:29.642Z,15.30
2023-05-16T19:24:57.442Z,15.68
2023-05-16T19:27:25.404Z,16.50
2023-05-16T19:29:53.067Z,16.45
2023-05-16T19:32:21.208Z,16.02
2023-05-16T19:34:48.934Z,17.15
2023-05-16T19:37:16.974Z,16.35
2023-05-16T19:39:44.630Z,17.88
2023-05-16T19:42:12.681Z,19.23
2023-05-16T19:44:40.528Z,19.42
2023-05-16T19:47:08.862Z,19.52
2023-05-16T19:49:36.711Z,18.70
2023-05-16T19:52:08.215Z,18.80
2023-05-16T19:54:36.189Z,18.65
2023-05-16T19:57:04.372Z,17.95
2023-05-16T19:59:32.756Z,18.08
2023-05-16T20:02:01.239Z,17.17
2023-05-16T20:04:29.051Z,17.00
2023-05-16T20:06:58.267Z,17.52
2023-05-16T20:09:27.829Z,16.25
2023-05-16T20:11:57.456Z,16.77
2023-05-16T20:14:25.894Z,16.90
2023-05-16T20:16:54.204Z,16.38
2023-05-16T20:19:22.593Z,15.32
2023-05-16T20:21:50.773Z,15.43
2023-05-16T20:24:18.643Z,15.52
2023-05-16T20:26:46.544Z,15.45
2023-05-16T20:29:14.342Z,15.68
2023-05-16T20:31:44.107Z,15.20
2023-05-16T20:34:11.938Z,15.18
2023-05-16T20:36:39.999Z,13.90
2023-05-16T20:39:09.081Z,15.30
2023-05-16T20:41:37.114Z,14.57
2023-05-16T20:44:06.178Z,13.55
2023-05-16T20:46:34.177Z,13.43
2023-05-16T20:49:01.934Z,13.32
2023-05-16T20:51:29.933Z,13.15
2023-05-16T20:53:57.656Z,13.10
2023-05-16T20:56:26.368Z,12.77
2023-05-16T20:58:54.104Z,13.32
2023-05-16T21:01:22.193Z,12.52
2023-05-16T21:03:50.301Z,13.63
2023-05-16T21:06:18.429Z,13.05
2023-05-16T21:08:46.113Z,13.23
2023-05-16T21:11:14.123Z,13.27
2023-05-16T21:13:41.869Z,12.88
2023-05-16T21:16:09.842Z,14.15
2023-05-16T21:18:37.720Z,13.48
2023-05-16T21:21:06.051Z,13.20
2023-05-16T21:23:34.497Z,13.57
2023-05-16T21:26:02.508Z,13.50
2023-05-16T21:28:32.808Z,13.75
2023-05-16T21:31:02.788Z,13.55
2023-05-16T21:33:30.547Z,12.93
2023-05-16T21:36:00.389Z,13.52
2023-05-16T21:38:28.101Z,13.68
2023-05-16T21:40:57.831Z,13.70
2023-05-16T21:43:25.595Z,14.15
2023-05-16T21:45:53.512Z,13.48
2023-05-16T21:48:21.362Z,12.50
2023-05-16T21:50:49.400Z,13.57
2023-05-16T21:53:17.734Z,13.73
2023-05-16T21:55:45.991Z,13.55
2023-05-16T21:58:13.627Z,12.38
2023-05-16T22:01:10.142Z,12.95
2023-05-16T22:03:53.214Z,11.55
2023-05-16T22:06:21.455Z,12.27
2023-05-16T22:08:49.166Z,12.27
2023-05-16T22:11:17.668Z,11.43
2023-05-16T22:13:45.377Z,12.13
2023-05-16T22:16:13.368Z,12.52
2023-05-16T22:18:41.264Z,12.85
2023-05-16T22:21:09.422Z,13.07
2023-05-16T22:23:37.799Z,12.73
2023-05-16T22:26:06.100Z,12.98
2023-05-16T22:28:33.774Z,15.10
2023-05-16T22:31:01.661Z,18.65
2023-05-16T22:33:29.471Z,18.30
2023-05-16T22:35:57.623Z,20.45
2023-05-16T22:38:25.355Z,20.95
2023-05-16T22:40:54.260Z,17.75
2023-05-16T22:43:21.957Z,17.40
2023-05-16T22:45:51.669Z,15.68
2023-05-16T22:48:19.443Z,14.40
2023-05-16T22:50:47.480Z,14.90
2023-05-16T22:53:15.229Z,14.95
2023-05-16T22:55:43.208Z,14.43
2023-05-16T22:58:10.865Z,15.23
2023-05-16T23:00:38.840Z,14.73
2023-05-16T23:03:06.669Z,15.20
2023-05-16T23:05:34.727Z,15.02
2023-05-16T23:08:03.318Z,15.07
2023-05-16T23:10:32.041Z,15.80
2023-05-16T23:12:59.827Z,15.65
2023-05-16T23:15:27.962Z,16.52
2023-05-16T23:17:56.329Z,17.15
2023-05-16T23:20:24.506Z,17.80
2023-05-16T23:22:52.166Z,18.23
2023-05-16T23:25:20.390Z,18.35
2023-05-16T23:27:48.178Z,19.55
2023-05-16T23:30:16.395Z,18.10
2023-05-16T23:32:44.130Z,20.15
2023-05-16T23:35:12.128Z,19.25
2023-05-16T23:37:39.847Z,20.77
2023-05-16T23:40:08.568Z,20.88
2023-05-16T23:42:36.880Z,20.73
2023-05-16T23:45:05.410Z,21.75
2023-05-16T23:47:33.152Z,21.95
2023-05-16T23:50:01.677Z,24.10
2023-05-16T23:52:29.564Z,24.55
2023-05-16T23:54:57.507Z,23.25
2023-05-16T23:57:25.255Z,23.40
2023-05-16T23:59:53.350Z,23.35
